createdAt,value
2022-12-26T00:00:16.866Z,22.40
2022-12-26T00:15:18.958Z,25.02
2022-12-26T00:30:21.026Z,25.55
2022-12-26T00:45:22.933Z,23.10
2022-12-26T01:00:24.924Z,23.40
2022-12-26T01:15:26.975Z,24.13
2022-12-26T01:30:29.319Z,28.08
2022-12-26T01:45:33.095Z,25.85
2022-12-26T02:00:37.652Z,28.23
2022-12-26T02:15:40.794Z,23.52
2022-12-26T02:30:54.564Z,18.25
2022-12-26T02:46:14.978Z,19.23
2022-12-26T03:01:47.090Z,22.10
2022-12-26T03:17:13.849Z,24.25
2022-12-26T03:32:15.788Z,20.63
2022-12-26T03:48:01.232Z,21.13
2022-12-26T04:03:27.793Z,17.58
2022-12-26T04:19:01.149Z,14.40
2022-12-26T04:34:29.050Z,11.75
2022-12-26T04:49:49.585Z,12.43
2022-12-26T05:05:10.213Z,9.45
2022-12-26T05:20:51.452Z,9.95
2022-12-26T05:35:54.152Z,12.88
2022-12-26T05:51:04.083Z,10.65
2022-12-26T06:06:07.285Z,10.85
2022-12-26T06:21:15.201Z,10.40
2022-12-26T06:36:19.946Z,9.20
2022-12-26T06:51:25.398Z,8.50
2022-12-26T07:06:33.723Z,8.10
2022-12-26T07:21:40.319Z,11.90
2022-12-26T07:36:43.061Z,8.32
2022-12-26T07:51:46.061Z,10.27
2022-12-26T08:06:48.012Z,10.85
2022-12-26T08:21:50.124Z,9.75
2022-12-26T08:36:52.616Z,9.85
2022-12-26T08:51:54.573Z,9.82
2022-12-26T09:06:57.008Z,10.50
2022-12-26T09:22:18.211Z,10.02
2022-12-26T09:37:20.343Z,9.07
2022-12-26T09:52:34.522Z,10.52
2022-12-26T10:07:39.299Z,8.55
2022-12-26T10:23:00.068Z,9.60
2022-12-26T10:38:30.951Z,7.75
2022-12-26T10:53:35.067Z,8.45
2022-12-26T11:08:49.361Z,8.82
2022-12-26T11:24:17.175Z,9.40
2022-12-26T11:39:33.546Z,10.38
2022-12-26T11:54:48.026Z,7.60
2022-12-26T12:10:13.999Z,8.65
2022-12-26T12:25:27.720Z,9.73
2022-12-26T12:40:49.318Z,6.53
2022-12-26T12:56:14.240Z,8.15
2022-12-26T13:11:27.612Z,7.90
2022-12-26T13:26:46.896Z,7.13
2022-12-26T13:42:33.589Z,8.32
2022-12-26T13:57:44.241Z,7.75
2022-12-26T14:12:55.380Z,9.13
2022-12-26T14:28:21.739Z,9.20
2022-12-26T14:43:35.961Z,8.15
2022-12-26T14:58:45.803Z,9.48
2022-12-26T15:13:56.642Z,10.70
2022-12-26T15:29:39.844Z,10.68
2022-12-26T15:44:48.292Z,11.95
2022-12-26T16:00:22.432Z,8.07
2022-12-26T16:15:25.257Z,8.63
2022-12-26T16:30:32.731Z,13.40
2022-12-26T16:45:37.598Z,10.63
2022-12-26T17:00:39.798Z,7.95
2022-12-26T17:15:57.143Z,12.05
2022-12-26T17:31:13.780Z,9.43
2022-12-26T17:46:22.284Z,15.75
2022-12-26T18:01:24.355Z,6.80
2022-12-26T18:16:29.699Z,8.88
2022-12-26T18:31:32.137Z,9.90
2022-12-26T18:46:34.580Z,10.27
2022-12-26T19:01:36.670Z,9.25
2022-12-26T19:16:39.060Z,7.85
2022-12-26T19:31:41.618Z,11.35
2022-12-26T19:46:43.619Z,14.40
2022-12-26T20:01:45.898Z,16.90
2022-12-26T20:17:08.795Z,10.90
2022-12-26T20:32:11.521Z,11.27
2022-12-26T20:47:13.491Z,9.20
2022-12-26T21:02:15.783Z,10.43
2022-12-26T21:17:19.313Z,11.75
2022-12-26T21:32:21.358Z,14.00
2022-12-26T21:47:23.352Z,10.55
2022-12-26T22:02:48.266Z,13.57
2022-12-26T22:17:50.442Z,11.90
2022-12-26T22:32:52.409Z,10.23
2022-12-26T22:47:54.531Z,7.80
2022-12-26T23:02:56.729Z,4.60
2022-12-26T23:18:27.242Z,4.03
2022-12-26T23:33:30.401Z,3.30
2022-12-26T23:48:33.830Z,4.13
